Time;durP1;ratioP1;P1;durP2;ratioP2;P2;SDS_P1;SDS_P2;PMS_P1;PMS_P2;Temp;Humidity;BMP_temperature;BMP_pressure;BME280_temperature;BME280_humidity;BME280_pressure;Samples;Min_cycle;Max_cycle;Signal;HPM_P1;HPM_P2
2021/06/07 00:01:55;;;;;;;0.82;0.52;;;17.20;99.90;;;;;;5092344;28;20171;-69
2021/06/07 00:04:23;;;;;;;0.20;0.20;;;17.10;99.90;;;;;;5092884;28;20189;-69
2021/06/07 00:06:48;;;;;;;1.20;0.65;;;17.00;99.90;;;;;;5110974;28;20160;-69
2021/06/07 00:09:16;;;;;;;0.68;0.60;;;17.00;99.90;;;;;;5110919;28;20635;-69
2021/06/07 00:11:47;;;;;;;0.40;0.40;;;16.90;99.90;;;;;;5110915;28;20187;-69
2021/06/07 00:14:14;;;;;;;0.20;0.20;;;16.90;99.90;;;;;;5110792;28;20159;-68
2021/06/07 00:16:40;;;;;;;0.25;0.25;;;17.00;99.90;;;;;;5110789;28;20156;-69
2021/06/07 00:19:09;;;;;;;0.10;0.10;;;16.90;99.90;;;;;;5092517;28;20171;-68
2021/06/07 00:21:36;;;;;;;0.20;0.20;;;16.90;99.90;;;;;;5110655;28;20189;-69
2021/06/07 00:24:03;;;;;;;0.20;0.20;;;16.90;99.90;;;;;;5110645;28;20166;-69
2021/06/07 00:26:29;;;;;;;0.20;0.20;;;16.90;99.90;;;;;;5110585;28;20567;-69
2021/06/07 00:28:56;;;;;;;0.35;0.30;;;16.90;99.90;;;;;;5110550;28;20170;-69
2021/06/07 00:31:23;;;;;;;0.50;0.50;;;16.90;99.90;;;;;;5110332;28;20194;-69
2021/06/07 00:33:50;;;;;;;0.28;0.28;;;16.80;99.90;;;;;;5110526;28;20160;-69
2021/06/07 00:36:20;;;;;;;0.40;0.40;;;16.60;99.90;;;;;;5110367;28;20159;-69
2021/06/07 00:38:47;;;;;;;0.30;0.30;;;16.50;99.90;;;;;;5110295;28;20178;-69
2021/06/07 00:41:14;;;;;;;0.32;0.32;;;16.60;99.90;;;;;;5091900;28;20195;-69
2021/06/07 00:43:40;;;;;;;1.00;0.70;;;16.70;99.90;;;;;;5110265;28;20166;-69
2021/06/07 00:46:06;;;;;;;0.10;0.10;;;16.70;99.90;;;;;;5109972;28;20219;-69
2021/06/07 00:48:33;;;;;;;0.40;0.40;;;16.60;99.90;;;;;;5110171;28;20232;-69
2021/06/07 00:51:08;;;;;;;0.43;0.40;;;16.60;99.90;;;;;;5110048;28;20270;-69
2021/06/07 00:53:36;;;;;;;0.82;0.82;;;16.50;99.90;;;;;;5091886;28;20242;-69
2021/06/07 00:56:05;;;;;;;0.30;0.30;;;16.30;99.90;;;;;;5091858;28;20213;-68
2021/06/07 00:58:35;;;;;;;1.48;1.17;;;16.20;99.90;;;;;;5110061;28;20520;-69
2021/06/07 01:01:03;;;;;;;0.45;0.45;;;16.10;99.90;;;;;;5109934;28;20202;-68
2021/06/07 01:03:30;;;;;;;0.38;0.38;;;16.00;99.90;;;;;;5109862;28;20166;-69
2021/06/07 01:05:57;;;;;;;0.63;0.63;;;15.90;99.90;;;;;;5091630;28;20220;-69
2021/06/07 01:08:24;;;;;;;1.45;0.40;;;15.90;99.90;;;;;;5109876;28;20155;-68
2021/06/07 01:10:51;;;;;;;0.47;0.47;;;16.00;99.90;;;;;;5109454;28;20206;-69
2021/06/07 01:13:19;;;;;;;0.22;0.22;;;15.90;99.90;;;;;;5091432;28;20230;-69
2021/06/07 01:15:47;;;;;;;0.20;0.20;;;15.70;99.90;;;;;;5109863;28;20155;-69
2021/06/07 01:18:15;;;;;;;0.77;0.77;;;15.70;99.90;;;;;;5109665;28;20212;-69
2021/06/07 01:20:43;;;;;;;0.57;0.57;;;15.60;99.90;;;;;;5109661;28;20198;-68
2021/06/07 01:23:10;;;;;;;0.98;0.80;;;15.70;99.90;;;;;;5109666;28;20180;-69
2021/06/07 01:25:39;;;;;;;0.30;0.30;;;15.80;99.90;;;;;;5091380;28;20167;-69
2021/06/07 01:28:06;;;;;;;0.63;0.63;;;15.70;99.90;;;;;;5109578;28;20155;-69
2021/06/07 01:30:38;;;;;;;0.43;0.43;;;15.70;99.90;;;;;;5109457;28;20186;-68
2021/06/07 01:33:07;;;;;;;0.50;0.50;;;15.60;99.90;;;;;;5109733;28;20159;-69
2021/06/07 01:35:34;;;;;;;0.38;0.38;;;15.50;99.90;;;;;;5109654;28;20698;-69
2021/06/07 01:38:01;;;;;;;0.82;0.82;;;15.50;99.90;;;;;;5109520;28;20151;-69
2021/06/07 01:40:31;;;;;;;0.50;0.50;;;15.50;99.90;;;;;;5109398;28;20193;-68
2021/06/07 01:42:58;;;;;;;0.50;0.50;;;15.50;99.90;;;;;;5109414;28;20162;-69
2021/06/07 01:45:26;;;;;;;0.30;0.30;;;15.50;99.90;;;;;;5109283;28;20185;-69
2021/06/07 01:47:54;;;;;;;0.73;0.43;;;15.40;99.90;;;;;;5109444;28;20639;-69
2021/06/07 01:50:20;;;;;;;1.00;0.52;;;15.40;99.90;;;;;;5109275;28;20202;-69
2021/06/07 01:52:50;;;;;;;0.43;0.43;;;15.40;99.90;;;;;;5109373;28;20191;-69
2021/06/07 01:55:21;;;;;;;0.45;0.22;;;15.30;99.90;;;;;;5109294;28;20162;-69
2021/06/07 01:57:49;;;;;;;0.80;0.80;;;15.30;99.90;;;;;;5109376;28;20152;-69
2021/06/07 02:00:17;;;;;;;0.82;0.82;;;15.20;99.90;;;;;;5091009;28;20198;-68
2021/06/07 02:02:44;;;;;;;0.70;0.50;;;15.20;99.90;;;;;;5109179;28;20193;-69
2021/06/07 02:05:13;;;;;;;0.17;0.17;;;15.20;99.90;;;;;;5109181;28;20160;-68
2021/06/07 02:07:44;;;;;;;0.73;0.73;;;15.10;99.90;;;;;;5109200;28;20162;-68
2021/06/07 02:10:12;;;;;;;0.90;0.90;;;15.10;99.90;;;;;;5109088;28;20187;-69
2021/06/07 02:12:38;;;;;;;1.40;0.80;;;15.20;99.90;;;;;;5109158;28;20187;-68
2021/06/07 02:15:06;;;;;;;0.38;0.38;;;15.20;99.90;;;;;;5109139;28;20174;-68
2021/06/07 02:17:34;;;;;;;0.30;0.30;;;15.10;99.90;;;;;;5109223;28;20152;-68
2021/06/07 02:20:00;;;;;;;0.80;0.73;;;15.10;99.90;;;;;;5108179;28;20187;-69
2021/06/07 02:22:26;;;;;;;1.17;0.88;;;15.00;99.90;;;;;;5109008;28;20170;-69
2021/06/07 02:24:51;;;;;;;0.08;0.08;;;15.00;99.90;;;;;;5094003;28;20195;-68
2021/06/07 02:27:17;;;;;;;0.52;0.52;;;14.90;99.90;;;;;;5112963;28;20213;-69
2021/06/07 02:29:43;;;;;;;0.45;0.45;;;14.90;99.90;;;;;;5112821;28;20268;-68
2021/06/07 02:32:09;;;;;;;1.27;1.20;;;14.80;99.90;;;;;;5112606;28;20200;-68
2021/06/07 02:34:37;;;;;;;0.60;0.60;;;14.70;99.90;;;;;;5094307;28;20160;-69
2021/06/07 02:37:04;;;;;;;1.25;1.15;;;14.80;99.90;;;;;;5112731;28;20608;-69
2021/06/07 02:39:29;;;;;;;0.43;0.43;;;14.70;99.90;;;;;;5112552;28;20191;-69
2021/06/07 02:41:56;;;;;;;0.10;0.10;;;14.70;99.90;;;;;;5112602;28;20155;-69
2021/06/07 02:44:22;;;;;;;1.17;0.82;;;14.70;99.90;;;;;;5112518;28;20156;-69
2021/06/07 02:46:49;;;;;;;0.20;0.20;;;14.70;99.90;;;;;;5112181;28;20221;-69
2021/06/07 02:49:15;;;;;;;0.22;0.22;;;14.60;99.90;;;;;;5112278;28;20170;-69
2021/06/07 02:51:41;;;;;;;0.50;0.50;;;14.60;99.90;;;;;;5112401;28;20194;-68
2021/06/07 02:54:08;;;;;;;0.32;0.32;;;14.60;99.90;;;;;;5112281;28;20151;-69
2021/06/07 02:56:34;;;;;;;2.53;0.80;;;14.50;99.90;;;;;;5112292;28;20182;-69
2021/06/07 02:59:01;;;;;;;0.52;0.52;;;14.60;99.90;;;;;;5112165;28;20584;-68
2021/06/07 03:01:27;;;;;;;0.17;0.17;;;14.50;99.90;;;;;;5093866;28;20221;-69
2021/06/07 03:03:53;;;;;;;0.82;0.82;;;14.50;99.90;;;;;;5112220;28;20155;-68
2021/06/07 03:06:19;;;;;;;0.38;0.38;;;14.50;99.90;;;;;;5094036;28;20182;-69
2021/06/07 03:08:45;;;;;;;0.52;0.50;;;14.60;99.90;;;;;;5111868;28;20171;-69
2021/06/07 03:11:12;;;;;;;0.80;0.52;;;14.60;99.90;;;;;;5111933;28;20555;-68
2021/06/07 03:13:40;;;;;;;0.57;0.57;;;14.60;99.90;;;;;;5111982;28;20152;-68
2021/06/07 03:16:06;;;;;;;0.60;0.60;;;14.70;99.90;;;;;;5111985;28;20159;-69
2021/06/07 03:18:33;;;;;;;1.15;1.05;;;14.70;99.90;;;;;;5093651;28;20179;-68
2021/06/07 03:20:59;;;;;;;0.45;0.43;;;14.60;99.90;;;;;;5111797;28;20198;-69
2021/06/07 03:23:29;;;;;;;0.40;0.40;;;14.60;99.90;;;;;;5111821;28;20170;-69
2021/06/07 03:25:55;;;;;;;1.33;0.80;;;14.60;99.90;;;;;;5093573;28;20167;-69
2021/06/07 03:28:22;;;;;;;0.10;0.10;;;14.70;99.90;;;;;;5111655;28;20242;-69
2021/06/07 03:30:50;;;;;;;0.40;0.40;;;14.70;99.90;;;;;;5093218;28;20207;-68
2021/06/07 03:33:18;;;;;;;0.25;0.25;;;14.80;99.90;;;;;;5093442;28;20277;-69
2021/06/07 03:35:46;;;;;;;0.32;0.32;;;14.90;99.90;;;;;;5093093;28;20178;-68
2021/06/07 03:38:14;;;;;;;0.63;0.45;;;15.00;99.90;;;;;;5093425;28;20216;-69
2021/06/07 03:40:43;;;;;;;0.65;0.65;;;15.20;99.90;;;;;;5111453;28;20192;-69
2021/06/07 03:43:09;;;;;;;0.88;0.73;;;15.30;99.90;;;;;;5111374;28;20152;-68
2021/06/07 03:45:36;;;;;;;0.15;0.15;;;15.30;99.90;;;;;;5111066;28;20181;-69
2021/06/07 03:48:03;;;;;;;0.40;0.40;;;15.30;99.90;;;;;;5111209;28;20155;-68
2021/06/07 03:50:31;;;;;;;0.40;0.40;;;15.40;99.90;;;;;;5111052;28;20187;-69
2021/06/07 03:52:57;;;;;;;0.63;0.52;;;15.90;99.90;;;;;;5111016;28;20213;-69
2021/06/07 03:55:26;;;;;;;0.20;0.20;;;16.40;99.90;;;;;;5111202;28;20156;-69
2021/06/07 03:57:53;;;;;;;0.75;0.75;;;16.70;99.90;;;;;;5111172;28;20635;-69
2021/06/07 04:00:23;;;;;;;1.05;0.75;;;17.30;99.90;;;;;;5110993;28;20206;-68
2021/06/07 04:02:50;;;;;;;0.52;0.40;;;18.00;99.90;;;;;;5092687;28;20175;-69
2021/06/07 04:05:16;;;;;;;0.55;0.55;;;18.40;99.90;;;;;;5111028;28;20170;-69
2021/06/07 04:07:43;;;;;;;0.45;0.45;;;19.00;99.90;;;;;;5110836;28;20160;-68
2021/06/07 04:10:15;;;;;;;0.60;0.60;;;19.40;99.90;;;;;;5110497;28;20198;-69
2021/06/07 04:12:42;;;;;;;0.30;0.30;;;19.90;99.90;;;;;;5110771;28;20187;-68
2021/06/07 04:15:10;;;;;;;0.65;0.40;;;20.50;99.90;;;;;;5092384;28;20170;-69
2021/06/07 04:17:37;;;;;;;0.68;0.68;;;21.00;99.90;;;;;;5110665;28;20181;-69
2021/06/07 04:20:05;;;;;;;0.40;0.40;;;21.10;99.90;;;;;;5110704;28;20541;-68
2021/06/07 04:22:31;;;;;;;0.50;0.50;;;21.10;99.90;;;;;;5110450;28;20872;-68
2021/06/07 04:24:57;;;;;;;1.83;0.60;;;21.10;99.90;;;;;;5110526;28;20163;-69
2021/06/07 04:27:23;;;;;;;0.80;0.75;;;21.30;99.90;;;;;;5110472;28;20159;-69
2021/06/07 04:29:49;;;;;;;0.20;0.20;;;21.50;99.90;;;;;;5110140;28;20212;-69
2021/06/07 04:32:15;;;;;;;0.63;0.40;;;21.60;99.90;;;;;;5110273;28;20183;-69
2021/06/07 04:34:41;;;;;;;0.55;0.47;;;21.70;99.90;;;;;;5110405;28;20159;-69
2021/06/07 04:37:07;;;;;;;0.63;0.52;;;22.10;99.90;;;;;;5110056;28;20220;-69
2021/06/07 04:39:33;;;;;;;0.65;0.65;;;22.10;99.90;;;;;;5091966;28;20194;-69
2021/06/07 04:41:59;;;;;;;0.63;0.63;;;22.30;99.90;;;;;;5110224;28;20198;-69
2021/06/07 04:44:25;;;;;;;0.73;0.73;;;22.10;99.90;;;;;;5091671;28;20178;-69
2021/06/07 04:46:51;;;;;;;0.30;0.30;;;22.10;99.90;;;;;;5109063;28;20218;-69
2021/06/07 04:49:17;;;;;;;0.55;0.55;;;22.80;99.90;;;;;;5109983;28;20185;-69
2021/06/07 04:51:43;;;;;;;0.20;0.20;;;23.10;99.90;;;;;;5091340;28;20195;-69
2021/06/07 04:54:09;;;;;;;0.40;0.40;;;22.90;99.90;;;;;;5109482;28;20188;-69
2021/06/07 04:56:35;;;;;;;1.55;0.30;;;23.10;99.90;;;;;;5109827;28;20178;-69
2021/06/07 04:59:01;;;;;;;0.55;0.55;;;23.70;99.90;;;;;;5109877;28;20163;-68
2021/06/07 05:01:27;;;;;;;0.82;0.65;;;23.80;99.90;;;;;;5109494;28;20196;-69
2021/06/07 05:03:53;;;;;;;0.73;0.68;;;24.10;99.90;;;;;;5109631;28;20167;-69
2021/06/07 05:06:19;;;;;;;0.30;0.20;;;24.20;99.90;;;;;;5109751;28;20163;-69
2021/06/07 05:08:45;;;;;;;0.10;0.10;;;24.40;99.90;;;;;;5109200;28;20180;-69
2021/06/07 05:11:11;;;;;;;0.70;0.70;;;24.20;99.90;;;;;;5109506;28;20209;-68
2021/06/07 05:13:37;;;;;;;0.50;0.50;;;23.70;99.90;;;;;;5109477;28;20162;-69
2021/06/07 05:16:03;;;;;;;7.15;0.55;;;24.00;99.90;;;;;;5109332;28;20166;-69
2021/06/07 05:18:31;;;;;;;1.27;0.85;;;24.50;99.90;;;;;;5109431;28;20151;-69
2021/06/07 05:20:57;;;;;;;1.73;1.63;;;24.80;99.90;;;;;;5109128;28;20313;-69
2021/06/07 05:23:22;;;;;;;0.43;0.43;;;24.30;99.90;;;;;;5109299;28;20163;-68
2021/06/07 05:25:50;;;;;;;0.30;0.30;;;24.00;99.90;;;;;;5108957;28;20200;-69
2021/06/07 05:28:20;;;;;;;0.93;0.85;;;24.10;99.90;;;;;;5109194;28;20220;-69
2021/06/07 05:30:49;;;;;;;0.93;0.80;;;24.00;99.90;;;;;;5108862;28;20194;-69
2021/06/07 05:33:15;;;;;;;0.95;0.80;;;24.40;99.90;;;;;;5109128;28;20239;-69
2021/06/07 05:35:45;;;;;;;1.35;1.27;;;24.90;99.90;;;;;;5109419;28;20155;-70
2021/06/07 05:38:12;;;;;;;0.43;0.43;;;25.30;99.90;;;;;;5109358;28;20182;-69
2021/06/07 05:40:39;;;;;;;0.55;0.55;;;25.30;99.90;;;;;;5108784;28;20246;-69
2021/06/07 05:43:07;;;;;;;0.68;0.68;;;25.20;99.90;;;;;;5090528;28;20220;-69
2021/06/07 05:45:33;;;;;;;0.75;0.45;;;25.10;99.90;;;;;;5090384;28;20171;-70
2021/06/07 05:47:59;;;;;;;0.28;0.28;;;25.10;99.90;;;;;;5108666;28;20159;-70
2021/06/07 05:50:28;;;;;;;0.55;0.55;;;25.30;99.90;;;;;;5108674;28;20197;-69
2021/06/07 05:52:54;;;;;;;0.40;0.40;;;26.20;99.90;;;;;;5108641;28;20209;-69
2021/06/07 05:55:27;;;;;;;0.77;0.77;;;26.10;99.90;;;;;;5108735;28;20215;-69
2021/06/07 05:57:56;;;;;;;0.88;0.70;;;26.20;99.90;;;;;;5092255;28;20174;-70
2021/06/07 06:00:25;;;;;;;1.45;1.27;;;27.10;99.90;;;;;;5094923;28;20199;-69
2021/06/07 06:02:51;;;;;;;0.40;0.40;;;27.50;99.90;;;;;;5094710;28;20191;-69
2021/06/07 06:05:18;;;;;;;0.57;0.57;;;27.50;99.90;;;;;;5113242;28;20514;-69
2021/06/07 06:07:45;;;;;;;0.50;0.50;;;27.60;99.90;;;;;;5113179;28;20226;-70
2021/06/07 06:10:12;;;;;;;0.43;0.40;;;28.00;99.90;;;;;;5113006;28;20183;-70
2021/06/07 06:12:38;;;;;;;1.48;1.33;;;28.20;99.90;;;;;;5112785;28;20227;-69
2021/06/07 06:15:08;;;;;;;0.73;0.73;;;27.20;99.90;;;;;;5112894;28;20221;-70
2021/06/07 06:17:34;;;;;;;0.90;0.65;;;27.30;99.90;;;;;;5112995;28;20190;-70
2021/06/07 06:20:00;;;;;;;3.35;0.88;;;28.00;99.90;;;;;;5112841;28;20214;-70
2021/06/07 06:22:26;;;;;;;0.98;0.55;;;28.40;99.90;;;;;;5112766;28;20216;-70
2021/06/07 06:24:51;;;;;;;11.90;1.02;;;28.40;99.90;;;;;;5112772;28;20163;-70
2021/06/07 06:27:18;;;;;;;0.82;0.65;;;27.10;99.90;;;;;;5112688;28;20212;-70
2021/06/07 06:29:44;;;;;;;1.13;1.02;;;28.00;99.90;;;;;;5112538;28;20198;-69
2021/06/07 06:32:12;;;;;;;0.98;0.98;;;27.70;99.90;;;;;;5112448;28;20186;-69
2021/06/07 06:34:39;;;;;;;0.82;0.82;;;28.00;99.90;;;;;;5112458;28;20212;-69
2021/06/07 06:37:06;;;;;;;0.10;0.10;;;28.50;99.90;;;;;;5112548;28;20151;-70
2021/06/07 06:39:32;;;;;;;1.00;0.90;;;28.00;99.90;;;;;;5112634;28;20682;-69
2021/06/07 06:41:58;;;;;;;0.88;0.60;;;29.30;99.90;;;;;;5112684;28;20159;-70
2021/06/07 06:44:24;;;;;;;0.73;0.73;;;30.10;99.90;;;;;;5112469;28;20171;-69
2021/06/07 06:46:50;;;;;;;0.57;0.57;;;29.00;99.90;;;;;;5112266;28;20214;-71
2021/06/07 06:49:16;;;;;;;0.47;0.47;;;28.30;99.90;;;;;;5112294;28;20239;-71
2021/06/07 06:51:42;;;;;;;1.25;1.15;;;28.40;99.90;;;;;;5093654;28;20199;-71
2021/06/07 06:54:08;;;;;;;0.40;0.40;;;28.90;99.90;;;;;;5112372;28;20155;-70
2021/06/07 06:56:34;;;;;;;0.75;0.75;;;29.80;99.90;;;;;;5112412;28;20184;-70
2021/06/07 06:59:00;;;;;;;0.90;0.52;;;29.90;99.90;;;;;;5112065;28;20158;-70
2021/06/07 07:01:27;;;;;;;0.73;0.73;;;30.10;99.90;;;;;;5112162;28;20201;-71
2021/06/07 07:03:53;;;;;;;0.73;0.50;;;30.50;99.90;;;;;;5111996;28;20162;-71
2021/06/07 07:06:19;;;;;;;0.68;0.68;;;29.30;99.90;;;;;;5112018;28;20189;-71
2021/06/07 07:08:46;;;;;;;0.75;0.63;;;29.20;99.90;;;;;;5111729;28;20159;-72
2021/06/07 07:11:12;;;;;;;1.33;1.13;;;28.00;99.90;;;;;;5111609;28;20218;-71
2021/06/07 07:13:38;;;;;;;2.30;0.80;;;27.90;99.90;;;;;;5093644;28;20163;-71
2021/06/07 07:16:05;;;;;;;0.63;0.63;;;28.80;99.90;;;;;;5093456;28;20239;-71
2021/06/07 07:18:31;;;;;;;0.90;0.90;;;28.30;99.90;;;;;;5086750;28;20171;-71
2021/06/07 07:20:58;;;;;;;0.43;0.43;;;28.40;99.90;;;;;;5106299;28;20190;-71
2021/06/07 07:23:24;;;;;;;0.82;0.82;;;28.60;99.90;;;;;;5093817;28;20167;-71
2021/06/07 07:25:50;;;;;;;1.55;0.88;;;28.90;99.90;;;;;;5080560;28;20181;-70
2021/06/07 07:28:18;;;;;;;1.48;0.95;;;29.10;99.90;;;;;;5111438;28;20253;-71
2021/06/07 07:30:45;;;;;;;3.50;1.48;;;29.30;99.90;;;;;;5111498;28;20240;-72
2021/06/07 07:33:12;;;;;;;1.02;0.50;;;29.00;99.90;;;;;;5111494;28;20147;-71
2021/06/07 07:35:38;;;;;;;1.55;1.10;;;29.90;99.90;;;;;;5093191;28;20170;-71
2021/06/07 07:38:04;;;;;;;0.55;0.55;;;30.30;99.90;;;;;;5093024;28;20543;-71
2021/06/07 07:40:32;;;;;;;1.77;1.40;;;30.70;99.90;;;;;;5109725;28;20420;-71
2021/06/07 07:42:58;;;;;;;8.45;1.58;;;31.00;99.90;;;;;;5110970;28;20155;-70
2021/06/07 07:45:26;;;;;;;0.90;0.73;;;30.50;99.90;;;;;;5109521;28;20196;-70
2021/06/07 07:48:01;;;;;;;0.77;0.65;;;30.30;99.90;;;;;;5109970;28;20185;-70
2021/06/07 07:50:29;;;;;;;0.52;0.50;;;30.40;99.90;;;;;;5092849;28;20206;-73
2021/06/07 07:52:55;;;;;;;1.52;0.90;;;30.30;99.90;;;;;;5110624;28;20194;-72
2021/06/07 07:55:24;;;;;;;0.45;0.45;;;29.00;99.90;;;;;;5092021;28;20206;-73
2021/06/07 07:57:51;;;;;;;0.45;0.45;;;28.70;99.90;;;;;;5110507;28;20202;-73
2021/06/07 08:00:21;;;;;;;0.70;0.55;;;29.20;99.90;;;;;;5092712;28;20174;-72
2021/06/07 08:02:47;;;;;;;1.90;1.50;;;29.70;99.90;;;;;;5110772;28;20155;-73
2021/06/07 08:05:14;;;;;;;1.70;1.13;;;29.50;99.90;;;;;;5110919;28;20202;-72
2021/06/07 08:07:40;;;;;;;1.33;1.00;;;29.20;99.90;;;;;;5110740;28;20231;-72
2021/06/07 08:10:08;;;;;;;2.03;1.38;;;29.10;99.90;;;;;;5110826;28;20230;-72
2021/06/07 08:12:34;;;;;;;4.18;1.33;;;28.70;99.90;;;;;;5110582;28;20593;-73
2021/06/07 08:15:01;;;;;;;1.00;0.95;;;28.60;99.90;;;;;;5110613;28;20182;-73
2021/06/07 08:17:27;;;;;;;0.75;0.75;;;28.40;99.90;;;;;;5110058;28;20182;-72
2021/06/07 08:19:52;;;;;;;0.85;0.85;;;28.50;99.90;;;;;;5108904;28;20205;-72
2021/06/07 08:22:19;;;;;;;2.17;1.25;;;28.70;99.90;;;;;;5107337;28;20218;-73
2021/06/07 08:24:45;;;;;;;0.68;0.50;;;29.30;99.90;;;;;;5092352;28;20170;-72
2021/06/07 08:27:12;;;;;;;0.90;0.90;;;29.60;99.90;;;;;;5091882;28;20211;-73
2021/06/07 08:29:38;;;;;;;1.85;1.13;;;30.90;99.90;;;;;;5110567;28;20245;-72
2021/06/07 08:32:04;;;;;;;2.40;1.27;;;30.60;99.90;;;;;;5109949;28;20213;-72
2021/06/07 08:34:30;;;;;;;0.68;0.68;;;29.10;99.90;;;;;;5110229;28;20210;-72
2021/06/07 08:36:56;;;;;;;22.98;1.00;;;28.70;99.90;;;;;;5109238;28;20225;-72
2021/06/07 08:39:22;;;;;;;0.55;0.40;;;28.50;99.90;;;;;;5109110;28;20253;-72
2021/06/07 08:41:56;;;;;;;0.40;0.40;;;29.80;99.90;;;;;;5123336;27;20277;-72
2021/06/07 08:44:23;;;;;;;1.77;0.85;;;31.70;99.90;;;;;;5108801;28;20229;-72
2021/06/07 08:46:49;;;;;;;1.33;0.63;;;32.00;99.90;;;;;;5108653;28;20502;-71
2021/06/07 08:49:15;;;;;;;2.05;1.50;;;31.50;99.90;;;;;;5127076;28;20162;-71
2021/06/07 08:51:41;;;;;;;0.82;0.82;;;31.90;99.90;;;;;;5126653;28;20182;-72
2021/06/07 08:54:07;;;;;;;1.92;0.95;;;31.80;99.90;;;;;;5126695;28;20193;-72
2021/06/07 08:56:34;;;;;;;1.40;1.02;;;32.20;99.90;;;;;;5124495;28;20167;-71
2021/06/07 08:58:59;;;;;;;1.10;1.00;;;32.80;99.90;;;;;;5103442;28;20178;-71
2021/06/07 09:01:26;;;;;;;0.70;0.70;;;32.10;99.90;;;;;;5105695;28;20195;-71
2021/06/07 09:03:51;;;;;;;2.30;1.05;;;32.00;99.90;;;;;;5087694;28;20170;-69
2021/06/07 09:06:25;;;;;;;1.27;1.17;;;31.90;99.90;;;;;;5105525;28;20165;-69
2021/06/07 09:09:03;;;;;;;1.10;1.05;;;32.00;99.90;;;;;;5106042;28;20616;-69
2021/06/07 09:11:31;;;;;;;1.02;0.93;;;32.20;99.90;;;;;;5087762;28;20195;-70
2021/06/07 09:13:57;;;;;;;1.00;0.90;;;31.60;99.90;;;;;;5106177;28;20200;-70
2021/06/07 09:16:35;;;;;;;0.90;0.77;;;31.50;99.90;;;;;;5105968;28;20521;-70
2021/06/07 09:19:27;;;;;;;0.98;0.98;;;30.10;99.90;;;;;;5084625;28;20602;-69
2021/06/07 09:22:15;;;;;;;0.85;0.70;;;31.90;99.90;;;;;;5085680;28;20199;-69
2021/06/07 09:25:10;;;;;;;1.20;1.05;;;31.30;99.90;;;;;;5085576;28;20190;-69
2021/06/07 09:27:38;;;;;;;17.25;1.20;;;31.00;99.90;;;;;;5105746;28;20174;-69
2021/06/07 09:30:24;;;;;;;0.88;0.73;;;30.60;99.90;;;;;;5104881;28;20186;-69
2021/06/07 09:33:11;;;;;;;1.00;0.77;;;29.80;99.90;;;;;;5104396;28;20158;-69
2021/06/07 09:35:36;;;;;;;1.80;1.60;;;29.70;99.90;;;;;;5086088;28;20170;-70
2021/06/07 09:38:06;;;;;;;0.98;0.98;;;31.10;99.90;;;;;;5104240;28;20159;-70
2021/06/07 09:40:32;;;;;;;2.03;1.73;;;30.70;99.90;;;;;;5103750;28;20294;-69
2021/06/07 09:43:01;;;;;;;1.38;1.25;;;32.00;99.90;;;;;;5104069;28;20170;-69
2021/06/07 09:45:47;;;;;;;0.80;0.80;;;31.70;99.90;;;;;;5086611;28;20178;-71
2021/06/07 09:48:15;;;;;;;1.08;1.02;;;31.30;99.90;;;;;;5105620;28;20163;-71
2021/06/07 09:51:02;;;;;;;0.85;0.63;;;30.60;99.90;;;;;;5087147;28;20182;-71
2021/06/07 09:53:51;;;;;;;1.60;1.00;;;29.50;99.90;;;;;;5073332;28;20206;-73
2021/06/07 09:56:18;;;;;;;2.17;1.52;;;29.00;99.90;;;;;;5091773;28;20174;-72
2021/06/07 09:58:46;;;;;;;1.05;0.95;;;28.60;99.90;;;;;;5073881;28;20254;-73
2021/06/07 10:01:17;;;;;;;0.98;0.82;;;28.70;99.90;;;;;;5091434;28;20192;-72
2021/06/07 10:03:49;;;;;;;0.82;0.52;;;29.90;99.90;;;;;;5091769;28;20216;-72
2021/06/07 10:06:35;;;;;;;1.17;1.00;;;30.90;99.90;;;;;;5091654;28;20156;-72
2021/06/07 10:09:08;;;;;;;0.85;0.85;;;31.00;99.90;;;;;;5091682;28;20219;-70
2021/06/07 10:11:41;;;;;;;9.27;1.95;;;30.20;99.90;;;;;;5091563;28;20210;-71
2021/06/07 10:14:13;;;;;;;5.68;1.85;;;30.20;99.90;;;;;;5091409;28;20179;-70
2021/06/07 10:16:47;;;;;;;1.80;1.20;;;30.30;99.90;;;;;;5091338;28;20163;-71
2021/06/07 10:19:30;;;;;;;0.88;0.85;;;30.50;99.90;;;;;;5073232;28;20206;-70
2021/06/07 10:21:56;;;;;;;1.45;1.17;;;30.40;99.90;;;;;;5091432;28;20163;-68
2021/06/07 10:24:23;;;;;;;1.02;0.88;;;30.20;99.90;;;;;;5106459;28;20163;-69
2021/06/07 10:26:49;;;;;;;1.70;1.08;;;30.20;99.90;;;;;;5080621;28;20174;-70
2021/06/07 10:29:15;;;;;;;1.05;1.05;;;30.20;99.90;;;;;;5091211;28;20195;-69
2021/06/07 10:31:41;;;;;;;1.35;1.27;;;30.10;99.90;;;;;;5073272;28;20163;-70
2021/06/07 10:34:09;;;;;;;0.98;0.98;;;29.60;99.90;;;;;;5071992;28;20164;-70
2021/06/07 10:36:38;;;;;;;0.82;0.82;;;28.80;99.90;;;;;;5079941;28;20169;-69
2021/06/07 10:39:13;;;;;;;1.45;1.33;;;28.20;99.90;;;;;;5065404;28;20168;-70
2021/06/07 10:42:08;;;;;;;2.10;1.40;;;28.80;99.90;;;;;;5070578;28;20231;-70
2021/06/07 10:45:08;;;;;;;1.13;0.68;;;30.00;99.90;;;;;;5087833;28;20202;-70
2021/06/07 10:47:45;;;;;;;1.63;1.45;;;31.30;99.90;;;;;;5085524;28;20266;-70
2021/06/07 10:50:14;;;;;;;0.73;0.73;;;30.10;99.90;;;;;;5090890;28;20163;-70
2021/06/07 10:52:58;;;;;;;1.35;1.25;;;29.00;99.90;;;;;;5058551;28;20183;-70
2021/06/07 10:55:27;;;;;;;3.05;1.10;;;28.30;99.90;;;;;;5070466;28;20192;-70
2021/06/07 10:58:12;;;;;;;1.73;0.95;;;27.80;99.90;;;;;;5052352;28;20205;-69
2021/06/07 11:00:42;;;;;;;0.80;0.65;;;27.10;99.90;;;;;;5070565;28;20192;-70
2021/06/07 11:03:26;;;;;;;0.85;0.63;;;27.20;99.90;;;;;;5069557;28;20180;-69
2021/06/07 11:05:58;;;;;;;0.95;0.70;;;27.90;99.90;;;;;;5070193;28;20188;-70
2021/06/07 11:08:29;;;;;;;2.42;1.05;;;28.60;99.90;;;;;;5073478;28;20216;-70
2021/06/07 11:11:17;;;;;;;1.90;0.85;;;28.90;99.90;;;;;;5090369;28;20158;-69
2021/06/07 11:13:54;;;;;;;0.88;0.88;;;29.30;99.90;;;;;;5090547;28;20155;-69
2021/06/07 11:16:27;;;;;;;1.13;1.10;;;28.20;99.90;;;;;;5090183;28;20187;-70
2021/06/07 11:19:04;;;;;;;4.47;0.70;;;28.30;99.90;;;;;;5072118;28;20250;-70
2021/06/07 11:21:31;;;;;;;0.95;0.93;;;29.40;99.90;;;;;;5071962;28;20226;-70
2021/06/07 11:23:58;;;;;;;0.30;0.30;;;30.30;99.90;;;;;;5090202;28;20195;-70
2021/06/07 11:26:39;;;;;;;1.13;1.02;;;30.50;99.90;;;;;;5092662;28;20213;-70
2021/06/07 11:29:08;;;;;;;1.33;0.70;;;30.20;99.90;;;;;;5094670;28;20179;-70
2021/06/07 11:31:34;;;;;;;1.63;1.02;;;30.50;99.90;;;;;;5093419;28;20190;-70
2021/06/07 11:34:01;;;;;;;1.67;1.17;;;30.60;99.90;;;;;;5086282;28;20203;-70
2021/06/07 11:36:39;;;;;;;1.10;1.00;;;30.60;99.90;;;;;;5078020;28;20215;-70
2021/06/07 11:39:24;;;;;;;0.98;0.98;;;30.60;99.90;;;;;;5069189;28;20532;-70
2021/06/07 11:41:54;;;;;;;1.52;1.42;;;29.70;99.90;;;;;;5069333;28;20223;-70
2021/06/07 11:44:43;;;;;;;0.65;0.65;;;28.70;99.90;;;;;;5087363;28;20199;-70
2021/06/07 11:47:22;;;;;;;0.65;0.65;;;27.20;99.90;;;;;;5089333;28;20240;-70
2021/06/07 11:49:57;;;;;;;2.20;0.98;;;27.40;99.90;;;;;;5088853;28;20166;-70
2021/06/07 11:52:32;;;;;;;1.27;1.08;;;28.00;99.90;;;;;;5089573;28;20167;-71
2021/06/07 11:55:32;;;;;;;1.08;0.85;;;29.40;99.90;;;;;;5071320;28;20264;-71
2021/06/07 11:58:07;;;;;;;0.73;0.73;;;29.80;99.90;;;;;;5071429;28;20190;-71
2021/06/07 12:00:40;;;;;;;0.70;0.70;;;29.70;99.90;;;;;;5088555;28;20191;-70
2021/06/07 12:03:12;;;;;;;0.95;0.93;;;28.80;99.90;;;;;;5071448;28;20254;-70
2021/06/07 12:05:39;;;;;;;1.67;1.15;;;29.00;99.90;;;;;;5088990;28;20656;-70
2021/06/07 12:08:10;;;;;;;1.88;0.63;;;29.30;99.90;;;;;;5089387;28;20155;-70
2021/06/07 12:10:38;;;;;;;7.65;1.00;;;28.90;99.90;;;;;;5070469;28;20264;-70
2021/06/07 12:13:17;;;;;;;0.73;0.70;;;29.30;99.90;;;;;;5089205;28;20155;-70
2021/06/07 12:16:11;;;;;;;1.30;0.93;;;29.60;99.90;;;;;;5088907;28;20163;-70
2021/06/07 12:18:44;;;;;;;1.08;0.98;;;27.70;99.90;;;;;;5089208;28;20187;-70
2021/06/07 12:21:17;;;;;;;0.80;0.80;;;27.50;99.90;;;;;;5088953;28;20203;-70
2021/06/07 12:24:09;;;;;;;2.08;0.85;;;27.80;99.90;;;;;;5071097;28;20167;-69
2021/06/07 12:29:34;;;;;;;1.05;1.05;;;27.70;99.90;;;;;;5089226;28;20196;-71
2021/06/07 12:32:20;;;;;;;1.65;1.10;;;27.20;99.90;;;;;;5070933;28;20173;-70
2021/06/07 12:35:00;;;;;;;1.55;1.25;;;26.90;99.90;;;;;;5089030;28;20511;-70
2021/06/07 12:37:30;;;;;;;0.65;0.65;;;27.00;99.90;;;;;;5070902;28;20174;-70
2021/06/07 12:40:12;;;;;;;1.08;0.98;;;27.10;99.90;;;;;;5088257;28;20579;-71
2021/06/07 12:42:39;;;;;;;0.55;0.50;;;27.10;99.90;;;;;;5088946;28;20159;-70
2021/06/07 12:45:11;;;;;;;1.17;0.93;;;27.30;99.90;;;;;;5070823;28;20170;-72
2021/06/07 12:47:37;;;;;;;0.38;0.38;;;27.50;99.90;;;;;;5088858;28;20171;-71
2021/06/07 12:50:24;;;;;;;1.02;0.98;;;28.40;99.90;;;;;;5088975;28;20217;-70
2021/06/07 12:52:56;;;;;;;1.10;0.68;;;28.60;99.90;;;;;;5070953;28;20172;-70
2021/06/07 12:55:30;;;;;;;1.20;0.65;;;28.50;99.90;;;;;;5070869;28;20191;-71
2021/06/07 12:57:56;;;;;;;0.40;0.40;;;25.60;99.90;;;;;;5089601;28;20206;-70
2021/06/07 13:00:27;;;;;;;0.82;0.45;;;24.80;99.90;;;;;;5088707;28;20195;-70